createdAt,value
2022-08-17T00:00:43.193Z,99458.88
2022-08-17T00:01:22.532Z,99455.59
2022-08-17T00:01:58.478Z,99470.84
2022-08-17T00:02:33.738Z,99462.97
2022-08-17T00:03:19.123Z,99460.59
2022-08-17T00:03:52.666Z,99459.00
2022-08-17T00:04:24.863Z,99468.00
2022-08-17T00:04:59.883Z,99459.81
2022-08-17T00:05:34.795Z,99460.13
2022-08-17T00:06:13.118Z,99460.94
2022-08-17T00:06:45.416Z,99460.13
2022-08-17T00:07:18.316Z,99462.06
2022-08-17T00:07:50.699Z,99463.69
2022-08-17T00:08:28.231Z,99468.34
2022-08-17T00:09:03.279Z,99465.13
2022-08-17T00:09:35.513Z,99469.03
2022-08-17T00:10:10.993Z,99468.22
2022-08-17T00:10:45.478Z,99469.38
2022-08-17T00:11:22.849Z,99465.03
2022-08-17T00:12:40.867Z,99472.78
2022-08-17T00:12:49.857Z,99464.81
2022-08-17T00:13:29.628Z,99464.81
2022-08-17T00:14:05.091Z,99464.34
2022-08-17T00:14:37.483Z,99463.09
2022-08-17T00:15:10.876Z,99467.06
2022-08-17T00:15:45.851Z,99467.88
2022-08-17T00:16:21.280Z,99468.69
2022-08-17T00:17:16.044Z,99475.97
2022-08-17T00:17:50.631Z,99467.44
2022-08-17T00:19:00.997Z,99467.44
2022-08-17T00:19:23.045Z,99461.03
2022-08-17T00:19:55.206Z,99460.28
2022-08-17T00:20:30.606Z,99466.16
2022-08-17T00:21:12.203Z,99465.03
2022-08-17T00:22:32.890Z,99463.44
2022-08-17T00:22:40.062Z,99467.66
2022-08-17T00:23:17.033Z,99465.03
2022-08-17T00:23:49.936Z,99463.91
2022-08-17T00:24:22.280Z,99464.34
2022-08-17T00:24:57.069Z,99474.16
2022-08-17T00:25:29.258Z,99465.16
2022-08-17T00:26:04.311Z,99461.28
2022-08-17T00:26:43.465Z,99470.28
2022-08-17T00:27:17.853Z,99462.75
2022-08-17T00:27:55.152Z,99461.28
2022-08-17T00:28:31.088Z,99464.34
2022-08-17T00:29:06.554Z,99467.06
2022-08-17T00:29:42.340Z,99458.56
2022-08-17T00:30:14.901Z,99460.47
2022-08-17T00:30:52.780Z,99456.16
2022-08-17T00:31:28.535Z,99461.63
2022-08-17T00:33:15.072Z,99457.75
2022-08-17T00:33:15.945Z,99462.63
2022-08-17T00:33:49.514Z,99465.72
2022-08-17T00:34:21.807Z,99466.16
2022-08-17T00:34:53.914Z,99462.31
2022-08-17T00:35:27.899Z,99457.97
2022-08-17T00:36:06.066Z,99463.91
2022-08-17T00:36:38.205Z,99461.50
2022-08-17T00:37:10.391Z,99460.72
2022-08-17T00:37:45.246Z,99460.72
2022-08-17T00:38:17.867Z,99461.03
2022-08-17T00:38:50.508Z,99452.38
2022-08-17T00:39:25.324Z,99463.00
2022-08-17T00:39:57.686Z,99456.25
2022-08-17T00:40:40.072Z,99452.72
2022-08-17T00:41:21.735Z,99462.72
2022-08-17T00:41:53.915Z,99464.66
2022-08-17T00:42:30.821Z,99456.13
2022-08-17T00:43:15.276Z,99461.13
2022-08-17T00:43:52.672Z,99459.88
2022-08-17T00:44:24.834Z,99457.94
2022-08-17T00:45:04.582Z,99457.16
2022-08-17T00:45:39.355Z,99462.28
2022-08-17T00:46:15.257Z,99450.88
2022-08-17T00:46:48.089Z,99456.00
2022-08-17T00:47:22.919Z,99462.59
2022-08-17T00:47:55.122Z,99457.16
2022-08-17T00:48:30.123Z,99448.97
2022-08-17T00:49:06.354Z,99457.94
2022-08-17T00:49:38.533Z,99456.34
2022-08-17T00:50:13.967Z,99455.91
2022-08-17T00:50:55.947Z,99453.94
2022-08-17T00:51:36.296Z,99459.78
2022-08-17T00:52:16.688Z,99464.44
2022-08-17T00:52:52.448Z,99455.88
2022-08-17T00:53:25.735Z,99460.19
2022-08-17T00:54:05.680Z,99455.97
2022-08-17T00:54:42.565Z,99454.75
2022-08-17T00:55:15.143Z,99457.47
2022-08-17T00:55:50.324Z,99455.53
2022-08-17T00:56:28.520Z,99457.47
2022-08-17T00:57:05.185Z,99449.59
2022-08-17T00:57:45.405Z,99455.06
2022-08-17T00:58:36.235Z,99454.63
2022-08-17T00:59:14.424Z,99452.91
2022-08-17T01:00:02.477Z,99457.25
2022-08-17T01:00:43.643Z,99455.19
2022-08-17T01:01:21.615Z,99455.53
2022-08-17T01:01:54.932Z,99452.44
2022-08-17T01:02:34.326Z,99455.66
2022-08-17T01:03:25.360Z,99455.53
2022-08-17T01:04:00.357Z,99453.94
2022-08-17T01:04:33.640Z,99455.53
2022-08-17T01:05:07.930Z,99451.66
2022-08-17T01:05:44.421Z,99452.44
2022-08-17T01:06:17.956Z,99456.31
2022-08-17T01:06:51.294Z,99447.78
2022-08-17T01:07:24.991Z,99450.53
2022-08-17T01:08:01.521Z,99450.53
2022-08-17T01:08:34.491Z,99452.44
2022-08-17T01:09:08.759Z,99453.25
2022-08-17T01:09:44.677Z,99449.72
2022-08-17T01:10:59.083Z,99452.44
2022-08-17T01:11:15.530Z,99456.19
2022-08-17T01:11:52.427Z,99451.53
2022-08-17T01:12:24.991Z,99456.66
2022-08-17T01:12:59.810Z,99451.66
2022-08-17T01:13:41.064Z,99452.44
2022-08-17T01:14:16.265Z,99456.31
2022-08-17T01:14:48.674Z,99452.44
2022-08-17T01:15:20.946Z,99446.66
2022-08-17T01:16:00.203Z,99460.75
2022-08-17T01:16:32.872Z,99458.81
2022-08-17T01:17:07.764Z,99461.22
2022-08-17T01:17:40.620Z,99453.84
2022-08-17T01:18:13.792Z,99451.09
2022-08-17T01:18:52.181Z,99460.88
2022-08-17T01:19:28.844Z,99455.75
2022-08-17T01:20:01.063Z,99451.91
2022-08-17T01:20:43.067Z,99451.53
2022-08-17T01:21:27.885Z,99447.56
2022-08-17T01:22:05.166Z,99457.69
2022-08-17T01:22:42.670Z,99459.28
2022-08-17T01:23:20.593Z,99458.16
2022-08-17T01:23:53.250Z,99451.53
2022-08-17T01:24:25.733Z,99462.94
2022-08-17T01:25:02.530Z,99456.34
2022-08-17T01:25:35.404Z,99450.09
2022-08-17T01:26:07.731Z,99452.81
2022-08-17T01:26:44.874Z,99461.00
2022-08-17T01:27:18.558Z,99450.41
2022-08-17T01:27:52.911Z,99457.81
2022-08-17T01:28:33.466Z,99455.06
2022-08-17T01:29:24.534Z,99449.38
2022-08-17T01:30:01.937Z,99446.31
2022-08-17T01:30:56.741Z,99443.94
2022-08-17T01:31:35.265Z,99442.66
2022-08-17T01:32:08.745Z,99444.63
2022-08-17T01:32:41.528Z,99443.13
2022-08-17T01:33:16.327Z,99443.94
2022-08-17T01:33:48.605Z,99442.00
2022-08-17T01:34:21.756Z,99443.59
2022-08-17T01:34:58.295Z,99438.47
2022-08-17T01:35:30.670Z,99437.66
2022-08-17T01:36:03.723Z,99438.78
2022-08-17T01:36:39.370Z,99436.88
2022-08-17T01:37:13.585Z,99439.94
2022-08-17T01:37:48.387Z,99441.88
2022-08-17T01:38:27.001Z,99439.16
2022-08-17T01:39:00.250Z,99433.22
2022-08-17T01:39:35.005Z,99441.41
2022-08-17T01:40:17.347Z,99439.81
2022-08-17T01:40:57.442Z,99435.50
2022-08-17T01:41:29.907Z,99441.31
2022-08-17T01:42:12.079Z,99435.03
2022-08-17T01:42:51.856Z,99431.06
2022-08-17T01:43:31.334Z,99429.09
2022-08-17T01:44:06.851Z,99432.19
2022-08-17T01:44:39.448Z,99430.28
2022-08-17T01:45:19.745Z,99427.19
2022-08-17T01:46:03.406Z,99430.81
2022-08-17T01:46:40.130Z,99428.88
2022-08-17T01:47:12.447Z,99423.91
2022-08-17T01:47:44.927Z,99425.13
2022-08-17T01:48:20.587Z,99425.94
2022-08-17T01:48:53.508Z,99426.75
2022-08-17T01:49:25.641Z,99429.47
2022-08-17T01:50:00.407Z,99425.13
2022-08-17T01:50:35.109Z,99424.34
2022-08-17T01:51:07.802Z,99431.72
2022-08-17T01:51:43.183Z,99427.06
2022-08-17T01:52:16.204Z,99429.81
2022-08-17T01:52:56.166Z,99424.66
2022-08-17T01:53:36.703Z,99425.81
2022-08-17T01:54:13.040Z,99431.63
2022-08-17T01:54:47.575Z,99431.63
2022-08-17T01:55:27.828Z,99422.63
2022-08-17T01:56:04.407Z,99419.44
2022-08-17T01:56:41.345Z,99426.03
2022-08-17T01:57:16.787Z,99426.03
2022-08-17T01:57:48.928Z,99423.31
2022-08-17T01:58:21.917Z,99434.22
2022-08-17T01:58:56.717Z,99426.84
2022-08-17T01:59:28.959Z,99429.56
2022-08-17T02:00:01.546Z,99424.78
2022-08-17T02:00:59.492Z,99431.50
2022-08-17T02:01:31.690Z,99428.50
2022-08-17T02:02:07.676Z,99434.44
2022-08-17T02:02:40.163Z,99436.03
2022-08-17T02:03:13.120Z,99425.13
2022-08-17T02:03:53.180Z,99436.03
2022-08-17T02:04:34.836Z,99423.84
2022-08-17T02:05:08.422Z,99431.72
2022-08-17T02:05:40.981Z,99427.38
2022-08-17T02:06:27.852Z,99432.16
2022-08-17T02:07:00.589Z,99427.38
2022-08-17T02:07:59.538Z,99428.97
2022-08-17T02:08:38.740Z,99428.06
2022-08-17T02:09:16.876Z,99427.72
2022-08-17T02:09:52.805Z,99432.41
2022-08-17T02:10:25.099Z,99426.59
2022-08-17T02:11:12.039Z,99418.75
2022-08-17T02:11:46.265Z,99428.06
2022-08-17T02:12:38.814Z,99425.78
2022-08-17T02:13:13.822Z,99424.41
2022-08-17T02:13:48.694Z,99419.41
2022-08-17T02:14:33.026Z,99423.28
2022-08-17T02:15:07.155Z,99427.59
2022-08-17T02:15:42.025Z,99425.66
2022-08-17T02:16:14.741Z,99429.19
2022-08-17T02:16:47.015Z,99426.47
2022-08-17T02:17:21.842Z,99426.94
2022-08-17T02:17:54.845Z,99423.72
2022-08-17T02:18:28.110Z,99427.25
2022-08-17T02:19:03.707Z,99431.91
2022-08-17T02:19:35.914Z,99425.66
2022-08-17T02:20:09.838Z,99429.53
2022-08-17T02:20:45.134Z,99420.22
2022-08-17T02:21:17.414Z,99423.28
2022-08-17T02:21:51.691Z,99416.69
2022-08-17T02:22:26.194Z,99424.88
2022-08-17T02:23:03.781Z,99418.59
2022-08-17T02:23:45.123Z,99420.09
2022-08-17T02:24:58.641Z,99420.91
2022-08-17T02:25:20.762Z,99422.69
2022-08-17T02:25:59.155Z,99416.44
2022-08-17T02:26:31.374Z,99419.63
2022-08-17T02:27:06.549Z,99422.81
2022-08-17T02:27:39.727Z,99421.69
2022-08-17T02:28:12.494Z,99419.41
2022-08-17T02:28:47.218Z,99420.22
2022-08-17T02:29:19.994Z,99421.00
2022-08-17T02:29:52.193Z,99423.06
2022-08-17T02:30:30.931Z,99423.53
2022-08-17T02:31:19.553Z,99422.13
2022-08-17T02:31:51.671Z,99425.78
2022-08-17T02:32:29.515Z,99432.50
2022-08-17T02:33:04.207Z,99421.94
2022-08-17T02:33:43.510Z,99421.94
2022-08-17T02:34:18.731Z,99434.44
2022-08-17T02:34:51.247Z,99425.44
2022-08-17T02:35:23.790Z,99423.97
2022-08-17T02:35:58.581Z,99427.50
2022-08-17T02:36:30.703Z,99430.22
2022-08-17T02:37:02.840Z,99422.84
2022-08-17T02:37:38.208Z,99421.72
2022-08-17T02:38:10.485Z,99421.72
2022-08-17T02:38:45.206Z,99427.66
2022-08-17T02:39:20.036Z,99423.31
2022-08-17T02:39:52.482Z,99416.25
2022-08-17T02:40:36.259Z,99424.13
2022-08-17T02:41:13.212Z,99422.84
2022-08-17T02:41:45.759Z,99423.63
2022-08-17T02:42:18.095Z,99419.31
2022-08-17T02:42:52.947Z,99428.28
2022-08-17T02:43:25.275Z,99429.09
2022-08-17T02:43:57.495Z,99420.91
2022-08-17T02:44:38.678Z,99434.56
2022-08-17T02:45:15.671Z,99421.94
2022-08-17T02:45:47.984Z,99424.66
2022-08-17T02:46:20.280Z,99428.19
2022-08-17T02:46:55.080Z,99423.53
2022-08-17T02:47:28.066Z,99421.94
2022-08-17T02:48:00.244Z,99425.78
2022-08-17T02:48:34.955Z,99425.34
2022-08-17T02:49:07.077Z,99422.94
2022-08-17T02:49:39.203Z,99424.88
2022-08-17T02:50:17.392Z,99421.34
2022-08-17T02:50:49.644Z,99425.53
2022-08-17T02:51:22.112Z,99424.41
2022-08-17T02:51:56.971Z,99423.94
2022-08-17T02:52:43.191Z,99421.22
2022-08-17T02:53:16.057Z,99427.69
2022-08-17T02:54:05.327Z,99418.38
2022-08-17T02:54:46.210Z,99429.81
2022-08-17T02:55:23.647Z,99423.25
2022-08-17T02:55:56.005Z,99420.50
2022-08-17T02:56:28.587Z,99422.91
2022-08-17T02:57:03.455Z,99427.25
2022-08-17T02:57:37.207Z,99425.63
2022-08-17T02:58:10.913Z,99419.06
2022-08-17T02:58:46.431Z,99419.84
2022-08-17T02:59:18.596Z,99419.38
2022-08-17T02:59:50.806Z,99412.81
2022-08-17T03:00:28.951Z,99421.00
2022-08-17T03:01:01.259Z,99417.47
2022-08-17T03:01:33.414Z,99415.06
2022-08-17T03:02:10.610Z,99415.06
2022-08-17T03:02:46.284Z,99409.97
2022-08-17T03:03:19.128Z,99413.47
2022-08-17T03:03:53.957Z,99418.91
2022-08-17T03:04:26.139Z,99408.81
2022-08-17T03:04:58.457Z,99412.00
2022-08-17T03:05:35.605Z,99405.75
2022-08-17T03:06:08.711Z,99409.97
2022-08-17T03:06:40.872Z,99416.66
2022-08-17T03:07:16.289Z,99412.81
2022-08-17T03:07:49.022Z,99415.53
2022-08-17T03:08:21.210Z,99408.47
2022-08-17T03:08:58.625Z,99412.44
2022-08-17T03:09:30.853Z,99408.16
2022-08-17T03:10:03.170Z,99413.25
2022-08-17T03:10:37.912Z,99411.66
2022-08-17T03:11:10.537Z,99413.25
2022-08-17T03:11:42.762Z,99413.25
2022-08-17T03:12:18.168Z,99412.13
2022-08-17T03:12:51.670Z,99409.72
2022-08-17T03:13:24.283Z,99409.38
2022-08-17T03:13:59.327Z,99409.38
2022-08-17T03:14:32.343Z,99406.66
2022-08-17T03:15:06.863Z,99409.38
2022-08-17T03:15:43.858Z,99408.59
2022-08-17T03:16:16.762Z,99408.59
2022-08-17T03:16:48.892Z,99403.59
2022-08-17T03:17:23.803Z,99407.94
2022-08-17T03:17:56.911Z,99405.97
2022-08-17T03:18:29.331Z,99413.03
2022-08-17T03:19:04.097Z,99402.91
2022-08-17T03:19:36.262Z,99407.56
2022-08-17T03:20:12.940Z,99411.59
2022-08-17T03:20:47.780Z,99405.31
2022-08-17T03:21:19.933Z,99403.41
2022-08-17T03:21:55.108Z,99406.13
2022-08-17T03:22:36.085Z,99404.19
2022-08-17T03:23:10.538Z,99407.69
2022-08-17T03:23:43.205Z,99403.84
2022-08-17T03:24:20.476Z,99410.91
2022-08-17T03:25:00.920Z,99409.28
2022-08-17T03:25:35.525Z,99407.84
2022-08-17T03:26:15.304Z,99408.28
2022-08-17T03:26:47.776Z,99400.78
2022-08-17T03:27:19.941Z,99410.22
2022-08-17T03:27:52.657Z,99415.34
2022-08-17T03:28:28.323Z,99414.22
2022-08-17T03:29:00.462Z,99406.34
2022-08-17T03:29:32.646Z,99409.09
2022-08-17T03:30:09.298Z,99407.94
2022-08-17T03:30:41.952Z,99411.81
2022-08-17T03:31:18.474Z,99407.16
2022-08-17T03:31:50.882Z,99405.88
2022-08-17T03:32:23.330Z,99406.81
2022-08-17T03:32:58.356Z,99406.81
2022-08-17T03:33:33.192Z,99407.59
2022-08-17T03:34:05.363Z,99405.66
2022-08-17T03:34:37.508Z,99411.59
2022-08-17T03:35:10.423Z,99408.06
2022-08-17T03:35:48.094Z,99411.59
2022-08-17T03:36:22.853Z,99407.25
2022-08-17T03:36:55.373Z,99413.53
2022-08-17T03:37:27.584Z,99413.53
2022-08-17T03:38:02.745Z,99402.13
2022-08-17T03:38:38.934Z,99415.47
2022-08-17T03:39:14.364Z,99411.47
2022-08-17T03:39:49.420Z,99408.41
2022-08-17T03:40:57.765Z,99409.19
2022-08-17T03:41:16.956Z,99414.22
2022-08-17T03:41:49.115Z,99407.59
2022-08-17T03:42:32.123Z,99412.41
2022-08-17T03:43:09.640Z,99410.78
2022-08-17T03:43:41.848Z,99409.66
2022-08-17T03:44:14.164Z,99410.91
2022-08-17T03:44:51.628Z,99411.03
2022-08-17T03:45:44.051Z,99409.44
2022-08-17T03:46:35.113Z,99416.03
2022-08-17T03:47:34.178Z,99415.56
2022-08-17T03:48:21.497Z,99415.94
2022-08-17T03:49:08.792Z,99412.03
2022-08-17T03:49:55.951Z,99413.19
2022-08-17T03:50:43.065Z,99414.75
2022-08-17T03:51:35.804Z,99421.03
2022-08-17T03:52:22.996Z,99416.72
2022-08-17T03:53:10.578Z,99417.50
2022-08-17T03:54:04.434Z,99421.81
2022-08-17T03:54:55.134Z,99425.34
2022-08-17T03:55:44.992Z,99425.03
2022-08-17T03:56:32.179Z,99419.22
2022-08-17T03:57:09.321Z,99420.81
2022-08-17T03:57:41.452Z,99421.28
2022-08-17T03:58:13.651Z,99419.78
2022-08-17T03:58:49.632Z,99414.81
2022-08-17T03:59:23.363Z,99419.13
2022-08-17T04:00:01.199Z,99410.59
2022-08-17T04:00:35.780Z,99422.78
2022-08-17T04:01:12.231Z,99416.97
2022-08-17T04:01:47.897Z,99414.69
2022-08-17T04:02:24.246Z,99424.50
2022-08-17T04:02:56.579Z,99423.00
2022-08-17T04:03:31.479Z,99423.81
2022-08-17T04:04:04.256Z,99425.41
2022-08-17T04:04:37.482Z,99418.78
2022-08-17T04:05:12.645Z,99419.16
2022-08-17T04:05:45.422Z,99424.59
2022-08-17T04:06:17.633Z,99415.28
2022-08-17T04:06:52.435Z,99418.78
2022-08-17T04:07:27.703Z,99417.66
2022-08-17T04:07:59.855Z,99419.94
2022-08-17T04:08:32.079Z,99419.59
2022-08-17T04:09:07.026Z,99421.97
2022-08-17T04:09:39.306Z,99413.00
2022-08-17T04:10:11.600Z,99424.72
2022-08-17T04:10:49.383Z,99418.13
2022-08-17T04:11:21.598Z,99424.72
2022-08-17T04:11:54.525Z,99421.97
2022-08-17T04:12:44.971Z,99421.97
2022-08-17T04:13:24.710Z,99420.28
2022-08-17T04:13:57.833Z,99413.22
2022-08-17T04:14:39.340Z,99411.75
2022-08-17T04:15:26.674Z,99420.59
2022-08-17T04:16:00.092Z,99422.19
2022-08-17T04:16:36.173Z,99409.34
2022-08-17T04:17:08.394Z,99416.75
2022-08-17T04:17:41.104Z,99413.22
2022-08-17T04:18:15.914Z,99412.09
2022-08-17T04:18:48.079Z,99414.00
2022-08-17T04:19:20.258Z,99418.66
2022-08-17T04:19:55.881Z,99414.00
2022-08-17T04:20:28.946Z,99412.78
2022-08-17T04:21:01.250Z,99414.69
2022-08-17T04:21:36.452Z,99419.81
2022-08-17T04:22:08.695Z,99419.47
2022-08-17T04:22:55.096Z,99408.88
2022-08-17T04:23:34.073Z,99412.09
2022-08-17T04:24:06.753Z,99409.81
2022-08-17T04:24:38.950Z,99408.34
2022-08-17T04:25:19.324Z,99406.41
2022-08-17T04:25:54.173Z,99412.41
2022-08-17T04:26:53.748Z,99403.56
2022-08-17T04:27:21.504Z,99413.31
2022-08-17T04:27:53.740Z,99411.53
2022-08-17T04:28:26.108Z,99413.56
2022-08-17T04:29:01.423Z,99414.47
2022-08-17T04:29:54.824Z,99409.50
2022-08-17T04:30:30.262Z,99410.94
2022-08-17T04:31:02.470Z,99413.91
2022-08-17T04:31:37.255Z,99409.59
2022-08-17T04:32:09.414Z,99405.38
2022-08-17T04:33:03.988Z,99409.22
2022-08-17T04:33:42.626Z,99411.97
2022-08-17T04:34:14.910Z,99415.97
2022-08-17T04:34:53.132Z,99413.66
2022-08-17T04:35:30.819Z,99418.28
2022-08-17T04:36:06.474Z,99408.38
2022-08-17T04:36:41.401Z,99415.06
2022-08-17T04:37:22.514Z,99417.81
2022-08-17T04:37:54.715Z,99417.47
2022-08-17T04:38:31.509Z,99406.19
2022-08-17T04:39:04.495Z,99408.59
2022-08-17T04:39:39.287Z,99415.28
2022-08-17T04:40:27.583Z,99406.75
2022-08-17T04:41:18.209Z,99407.09
2022-08-17T04:42:05.371Z,99409.81
2022-08-17T04:42:37.511Z,99404.38
2022-08-17T04:43:11.970Z,99408.03
2022-08-17T04:43:48.476Z,99403.00
2022-08-17T04:44:37.125Z,99408.13
2022-08-17T04:45:11.030Z,99404.94
2022-08-17T04:45:55.650Z,99403.09
2022-08-17T04:46:32.946Z,99400.38
2022-08-17T04:47:07.997Z,99409.84
2022-08-17T04:47:42.904Z,99404.38
2022-08-17T04:48:15.200Z,99409.13
2022-08-17T04:48:52.377Z,99401.41
2022-08-17T04:49:24.665Z,99401.41
2022-08-17T04:49:56.901Z,99402.66
2022-08-17T04:50:31.743Z,99400.38
2022-08-17T04:51:07.043Z,99399.69
2022-08-17T04:51:45.500Z,99404.00
2022-08-17T04:52:42.992Z,99398.78
2022-08-17T04:53:17.493Z,99398.78
2022-08-17T04:53:55.009Z,99395.34
2022-08-17T04:54:27.793Z,99399.22
2022-08-17T04:55:03.407Z,99402.84
2022-08-17T04:55:38.790Z,99400.91
2022-08-17T04:56:16.908Z,99400.56
2022-08-17T04:56:53.652Z,99405.25
2022-08-17T04:57:25.883Z,99401.03
2022-08-17T04:57:58.143Z,99407.28
2022-08-17T04:58:30.349Z,99404.22
2022-08-17T04:59:07.180Z,99407.41
2022-08-17T04:59:39.330Z,99398.41
2022-08-17T05:00:12.663Z,99410.56
2022-08-17T05:00:47.536Z,99406.25
2022-08-17T05:01:24.050Z,99401.56
2022-08-17T05:01:59.227Z,99405.91
2022-08-17T05:02:32.217Z,99409.44
2022-08-17T05:03:05.001Z,99401.25
2022-08-17T05:03:37.190Z,99407.94
2022-08-17T05:04:33.099Z,99407.28
2022-08-17T05:05:07.544Z,99409.88
2022-08-17T05:05:44.735Z,99406.09
2022-08-17T05:06:23.178Z,99410.00
2022-08-17T05:06:55.835Z,99397.91
2022-08-17T05:07:31.444Z,99405.44
2022-08-17T05:08:08.882Z,99402.34
2022-08-17T05:08:41.524Z,99403.13
2022-08-17T05:09:17.536Z,99405.53
2022-08-17T05:09:49.954Z,99404.41
2022-08-17T05:10:22.488Z,99403.59
2022-08-17T05:10:57.698Z,99402.47
2022-08-17T05:11:32.632Z,99397.31
2022-08-17T05:12:08.077Z,99406.66
2022-08-17T05:12:40.292Z,99403.94
2022-08-17T05:13:15.680Z,99401.19
2022-08-17T05:13:52.494Z,99401.19
2022-08-17T05:14:33.288Z,99406.31
2022-08-17T05:15:12.466Z,99402.78
2022-08-17T05:15:48.881Z,99411.78
2022-08-17T05:16:22.670Z,99409.88
2022-08-17T05:16:54.908Z,99411.09
2022-08-17T05:17:29.601Z,99409.97
2022-08-17T05:18:02.313Z,99413.50
2022-08-17T05:18:34.874Z,99415.09
2022-08-17T05:19:09.761Z,99406.88
2022-08-17T05:19:41.952Z,99406.88
2022-08-17T05:20:14.137Z,99408.91
2022-08-17T05:20:46.848Z,99412.88
2022-08-17T05:21:22.344Z,99408.59
2022-08-17T05:21:54.536Z,99412.09
2022-08-17T05:22:26.908Z,99409.00
2022-08-17T05:23:07.188Z,99407.09
2022-08-17T05:23:42.439Z,99405.28
2022-08-17T05:24:42.477Z,99406.53
2022-08-17T05:25:10.350Z,99409.25
2022-08-17T05:25:45.686Z,99407.41
2022-08-17T05:26:26.839Z,99413.69
2022-08-17T05:27:06.233Z,99409.81
2022-08-17T05:27:41.610Z,99405.47
2022-08-17T05:28:16.175Z,99414.16
2022-08-17T05:28:48.859Z,99410.72
2022-08-17T05:29:33.573Z,99409.56
2022-08-17T05:30:08.952Z,99407.53
2022-08-17T05:30:42.695Z,99416.97
2022-08-17T05:31:17.581Z,99411.16
2022-08-17T05:31:49.708Z,99414.72
2022-08-17T05:32:37.821Z,99409.22
2022-08-17T05:33:16.993Z,99413.44
2022-08-17T05:33:49.726Z,99417.44
2022-08-17T05:34:24.601Z,99412.44
2022-08-17T05:35:00.053Z,99415.63
2022-08-17T05:35:34.806Z,99416.06
2022-08-17T05:36:11.742Z,99414.91
2022-08-17T05:37:03.999Z,99415.25
2022-08-17T05:37:39.171Z,99416.94
2022-08-17T05:38:11.797Z,99421.28
2022-08-17T05:38:46.629Z,99415.13
2022-08-17T05:39:18.846Z,99417.50
2022-08-17T05:39:51.060Z,99412.94
2022-08-17T05:40:25.332Z,99416.13
2022-08-17T05:41:01.362Z,99417.69
2022-08-17T05:41:33.532Z,99415.41
2022-08-17T05:42:09.358Z,99418.63
2022-08-17T05:42:44.591Z,99418.25
2022-08-17T05:43:19.858Z,99415.50
2022-08-17T05:43:56.203Z,99416.78
2022-08-17T05:44:31.319Z,99418.00
2022-08-17T05:45:03.820Z,99411.72
2022-08-17T05:45:55.809Z,99416.06
2022-08-17T05:46:38.650Z,99411.63
2022-08-17T05:47:10.846Z,99408.56
2022-08-17T05:47:44.707Z,99414.47
2022-08-17T05:48:19.518Z,99409.44
2022-08-17T05:48:56.238Z,99407.13
2022-08-17T05:49:31.852Z,99404.06
2022-08-17T05:50:09.767Z,99404.50
2022-08-17T05:50:51.546Z,99400.19
2022-08-17T05:51:41.987Z,99416.69
2022-08-17T05:52:21.169Z,99411.81
2022-08-17T05:52:59.337Z,99416.25
2022-08-17T05:53:44.319Z,99411.22
2022-08-17T05:54:29.825Z,99416.00
2022-08-17T05:55:17.017Z,99410.97
2022-08-17T05:55:55.720Z,99418.81
2022-08-17T05:56:54.297Z,99418.13
2022-08-17T05:57:44.806Z,99429.88
2022-08-17T05:58:33.555Z,99415.81
2022-08-17T05:59:14.430Z,99417.41
2022-08-17T05:59:57.758Z,99413.19
2022-08-17T06:00:44.534Z,99410.09
2022-08-17T06:01:30.159Z,99408.94
2022-08-17T06:02:10.975Z,99417.63
2022-08-17T06:03:01.040Z,99412.16
2022-08-17T06:03:49.803Z,99419.56
2022-08-17T06:04:34.563Z,99413.03
2022-08-17T06:05:17.060Z,99413.91
2022-08-17T06:06:09.225Z,99409.66
2022-08-17T06:06:46.189Z,99410.91
2022-08-17T06:07:21.834Z,99411.81
2022-08-17T06:08:05.339Z,99414.66
2022-08-17T06:08:51.623Z,99411.56
2022-08-17T06:09:41.298Z,99409.25
2022-08-17T06:10:24.806Z,99415.53
2022-08-17T06:11:02.911Z,99408.91
2022-08-17T06:11:53.329Z,99409.34
2022-08-17T06:12:54.887Z,99410.13
2022-08-17T06:13:45.909Z,99412.88
2022-08-17T06:14:55.973Z,99412.88
2022-08-17T06:15:36.707Z,99402.31
2022-08-17T06:16:28.172Z,99409.00
2022-08-17T06:17:10.706Z,99413.69
2022-08-17T06:17:46.034Z,99413.34
2022-08-17T06:18:21.556Z,99413.41
2022-08-17T06:19:02.412Z,99412.69
2022-08-17T06:19:44.108Z,99415.88
2022-08-17T06:20:16.455Z,99412.78
2022-08-17T06:20:55.068Z,99422.25
2022-08-17T06:21:33.562Z,99417.56
2022-08-17T06:22:09.093Z,99417.56
2022-08-17T06:22:46.257Z,99417.19
2022-08-17T06:23:26.315Z,99412.50
2022-08-17T06:24:08.442Z,99419.16
2022-08-17T06:24:44.890Z,99424.28
2022-08-17T06:25:21.726Z,99411.38
2022-08-17T06:26:01.482Z,99416.84
2022-08-17T06:26:42.472Z,99411.28
2022-08-17T06:27:25.198Z,99415.63
2022-08-17T06:28:06.013Z,99419.94
2022-08-17T06:28:44.428Z,99420.38
2022-08-17T06:29:27.207Z,99415.00
2022-08-17T06:30:09.676Z,99407.56
2022-08-17T06:31:00.292Z,99412.31
2022-08-17T06:31:38.657Z,99418.25
2022-08-17T06:32:12.911Z,99419.47
2022-08-17T06:32:48.640Z,99416.41
2022-08-17T06:33:28.692Z,99416.84
2022-08-17T06:34:03.534Z,99416.13
2022-08-17T06:34:38.135Z,99410.66
2022-08-17T06:35:15.393Z,99418.94
2022-08-17T06:35:59.772Z,99414.25
2022-08-17T06:36:51.368Z,99407.97
2022-08-17T06:37:43.240Z,99418.53
2022-08-17T06:38:37.666Z,99423.63
2022-08-17T06:39:27.327Z,99409.13
2022-08-17T06:40:17.282Z,99418.59
2022-08-17T06:41:05.486Z,99417.78
2022-08-17T06:41:49.578Z,99425.28
2022-08-17T06:43:02.011Z,99404.16
2022-08-17T06:43:59.670Z,99411.97
2022-08-17T06:44:50.226Z,99413.53
2022-08-17T06:45:31.350Z,99417.53
2022-08-17T06:46:11.026Z,99412.91
2022-08-17T06:46:48.756Z,99409.81
2022-08-17T06:47:29.324Z,99413.06
2022-08-17T06:48:10.165Z,99409.19
2022-08-17T06:48:47.107Z,99415.88
2022-08-17T06:49:27.012Z,99414.38
2022-08-17T06:50:14.760Z,99421.09
2022-08-17T06:50:51.473Z,99414.81
2022-08-17T06:51:31.256Z,99420.44
2022-08-17T06:52:42.242Z,99417.69
2022-08-17T06:53:22.569Z,99415.28
2022-08-17T06:54:02.907Z,99422.00
2022-08-17T06:54:41.987Z,99417.22
2022-08-17T06:55:20.335Z,99413.00
2022-08-17T06:55:57.348Z,99420.91
2022-08-17T06:56:53.222Z,99416.69
2022-08-17T06:57:31.135Z,99413.56
2022-08-17T06:58:15.792Z,99421.88
2022-08-17T06:58:49.678Z,99420.72
2022-08-17T06:59:54.363Z,99416.81
2022-08-17T07:00:26.339Z,99423.81
2022-08-17T07:01:06.702Z,99420.28
2022-08-17T07:01:45.432Z,99421.09
2022-08-17T07:02:29.036Z,99418.34
2022-08-17T07:03:29.125Z,99418.28
2022-08-17T07:04:12.096Z,99412.78
2022-08-17T07:04:44.668Z,99417.09
2022-08-17T07:05:23.316Z,99418.34
2022-08-17T07:06:01.251Z,99420.72
2022-08-17T07:06:41.315Z,99419.94
2022-08-17T07:07:28.564Z,99419.16
2022-08-17T07:08:07.522Z,99418.69
2022-08-17T07:08:52.387Z,99424.97
2022-08-17T07:09:31.228Z,99422.22
2022-08-17T07:10:04.498Z,99423.03
2022-08-17T07:10:44.608Z,99419.94
2022-08-17T07:11:21.029Z,99420.72
2022-08-17T07:11:57.177Z,99421.94
2022-08-17T07:12:38.672Z,99416.13
2022-08-17T07:13:29.634Z,99415.66
2022-08-17T07:14:17.494Z,99407.00
2022-08-17T07:14:56.475Z,99421.09
2022-08-17T07:15:43.614Z,99415.22
2022-08-17T07:16:19.768Z,99419.94
2022-08-17T07:16:58.591Z,99416.03
2022-08-17T07:17:47.058Z,99417.63
2022-08-17T07:18:29.817Z,99412.13
2022-08-17T07:19:02.225Z,99423.56
2022-08-17T07:19:38.294Z,99421.69
2022-08-17T07:20:16.033Z,99414.25
2022-08-17T07:20:51.608Z,99406.03
2022-08-17T07:21:40.986Z,99414.66
2022-08-17T07:22:22.005Z,99423.69
2022-08-17T07:23:04.479Z,99412.38
2022-08-17T07:23:47.696Z,99418.28